createdAt,value
2023-02-21T00:02:45.311Z,97878.75
2023-02-21T00:07:00.321Z,97871.29
2023-02-21T00:11:15.593Z,97853.38
2023-02-21T00:15:30.319Z,97868.23
2023-02-21T00:19:45.320Z,97866.42
2023-02-21T00:24:00.422Z,97873.79
2023-02-21T00:28:15.253Z,97874.89
2023-02-21T00:32:32.410Z,97878.92
2023-02-21T00:36:49.278Z,97867.75
2023-02-21T00:41:04.311Z,97872.04
2023-02-21T00:45:19.275Z,97874.08
2023-02-21T00:49:35.317Z,97877.67
2023-02-21T00:53:51.341Z,97875.80
2023-02-21T00:58:07.269Z,97883.91
2023-02-21T01:02:22.229Z,97871.53
2023-02-21T01:06:41.262Z,97879.31
2023-02-21T01:10:57.231Z,97867.66
2023-02-21T01:15:12.215Z,97887.83
2023-02-21T01:19:28.217Z,97884.16
2023-02-21T01:23:44.230Z,97886.52
2023-02-21T01:28:00.207Z,97890.96
2023-02-21T01:32:18.348Z,97884.39
2023-02-21T01:36:33.275Z,97874.54
2023-02-21T01:40:49.200Z,97866.84
2023-02-21T01:45:09.215Z,97858.40
2023-02-21T01:49:26.217Z,97859.38
2023-02-21T01:53:51.279Z,97878.11
2023-02-21T01:58:07.231Z,97879.85
2023-02-21T02:02:28.169Z,97874.25
2023-02-21T02:06:47.163Z,97871.10
2023-02-21T02:11:04.170Z,97883.31
2023-02-21T02:15:23.235Z,97879.19
2023-02-21T02:19:47.219Z,97899.29
2023-02-21T02:24:07.186Z,97879.67
2023-02-21T02:28:23.119Z,97882.98
2023-02-21T02:32:35.223Z,97871.56
2023-02-21T02:36:40.292Z,97875.09
2023-02-21T02:40:50.175Z,97878.39
2023-02-21T02:45:06.105Z,97870.39
2023-02-21T02:49:15.231Z,97854.80
2023-02-21T02:53:17.095Z,97845.14
2023-02-21T02:57:17.125Z,97840.14
2023-02-21T03:01:51.289Z,97831.16
2023-02-21T03:06:00.112Z,97859.85
2023-02-21T03:10:16.223Z,97852.05
2023-02-21T03:14:30.083Z,97862.30
2023-02-21T03:18:48.118Z,97865.83
2023-02-21T03:22:47.099Z,97872.75
2023-02-21T03:26:48.082Z,97876.34
2023-02-21T03:31:08.131Z,97882.33
2023-02-21T03:35:07.143Z,97888.02
2023-02-21T03:39:06.240Z,97889.11
2023-02-21T03:43:05.056Z,97881.48
2023-02-21T03:47:11.120Z,97882.32
2023-02-21T03:51:09.047Z,97875.11
2023-02-21T03:55:07.171Z,97876.35
2023-02-21T03:59:05.058Z,97879.39
2023-02-21T04:03:03.132Z,97870.42
2023-02-21T04:07:07.993Z,97873.02
2023-02-21T04:11:06.055Z,97873.58
2023-02-21T04:15:06.096Z,97872.66
2023-02-21T04:19:05.014Z,97870.54
2023-02-21T04:23:03.880Z,97861.98
2023-02-21T04:27:02.036Z,97865.20
2023-02-21T04:31:02.983Z,97868.16
2023-02-21T04:35:03.116Z,97862.88
2023-02-21T04:39:00.959Z,97860.72
2023-02-21T04:42:59.104Z,97862.44
2023-02-21T04:46:57.075Z,97859.78
2023-02-21T04:50:59.191Z,97865.73
2023-02-21T04:54:58.943Z,97870.97
2023-02-21T04:58:57.066Z,97870.06
2023-02-21T05:02:57.913Z,97872.98
2023-02-21T05:06:55.949Z,97861.17
2023-02-21T05:10:56.942Z,97869.48
2023-02-21T05:14:54.978Z,97870.65
2023-02-21T05:18:52.985Z,97876.66
2023-02-21T05:22:50.979Z,97881.11
2023-02-21T05:26:52.918Z,97875.83
2023-02-21T05:30:51.009Z,97874.73
2023-02-21T05:34:50.953Z,97881.81
2023-02-21T05:38:58.988Z,97877.52
2023-02-21T05:42:57.959Z,97882.95
2023-02-21T05:46:55.938Z,97882.88
2023-02-21T05:50:53.930Z,97891.36
2023-02-21T05:54:52.002Z,97897.73
2023-02-21T05:58:49.852Z,97894.02
2023-02-21T06:02:47.961Z,97903.81
2023-02-21T06:06:45.936Z,97905.61
2023-02-21T06:10:43.843Z,97908.25
2023-02-21T06:14:41.890Z,97917.36
2023-02-21T06:18:40.072Z,97910.70
2023-02-21T06:22:37.851Z,97904.76
2023-02-21T06:26:36.903Z,97908.84
2023-02-21T06:30:34.887Z,97909.15
2023-02-21T06:34:32.797Z,97915.26
2023-02-21T06:38:30.903Z,97926.48
2023-02-21T06:42:29.833Z,97930.77
2023-02-21T06:46:31.897Z,97941.64
2023-02-21T06:50:29.828Z,97949.11
2023-02-21T06:54:27.835Z,97954.75
2023-02-21T06:58:25.812Z,97960.62
2023-02-21T07:02:04.928Z,97966.11
2023-02-21T07:05:29.438Z,97969.07
2023-02-21T07:08:55.471Z,97973.92
2023-02-21T07:12:19.449Z,97972.44
2023-02-21T07:15:43.288Z,97969.27
2023-02-21T07:19:07.533Z,97970.95
2023-02-21T07:22:31.710Z,97983.77
2023-02-21T07:25:55.539Z,97983.75
2023-02-21T07:29:19.576Z,97987.04
2023-02-21T07:32:43.424Z,97991.86
2023-02-21T07:36:07.549Z,97999.34
2023-02-21T07:39:31.724Z,98008.75
2023-02-21T07:42:55.544Z,98010.36
2023-02-21T07:46:19.759Z,98005.21
2023-02-21T07:49:44.062Z,98010.01
2023-02-21T07:53:10.328Z,98008.58
2023-02-21T07:56:36.289Z,98010.55
2023-02-21T08:00:00.241Z,98000.45
2023-02-21T08:03:24.261Z,98006.65
2023-02-21T08:06:51.603Z,98014.04
2023-02-21T08:10:23.014Z,98017.71
2023-02-21T08:13:47.526Z,98025.05
2023-02-21T08:17:11.456Z,98029.71
2023-02-21T08:20:35.407Z,98028.63
2023-02-21T08:23:59.288Z,98029.91
2023-02-21T08:27:23.423Z,98038.55
2023-02-21T08:30:47.633Z,98043.98
2023-02-21T08:34:12.800Z,98052.16
2023-02-21T08:37:37.486Z,98061.09
2023-02-21T08:41:05.153Z,98066.23
2023-02-21T08:44:29.113Z,98060.95
2023-02-21T08:47:53.704Z,98073.13
2023-02-21T08:51:18.033Z,98078.19
2023-02-21T08:54:42.037Z,98079.42
2023-02-21T08:58:06.426Z,98078.64
2023-02-21T09:01:36.055Z,98090.27
2023-02-21T09:05:00.719Z,98100.71
2023-02-21T09:08:26.869Z,98106.92
2023-02-21T09:11:50.752Z,98109.86
2023-02-21T09:15:17.817Z,98117.73
2023-02-21T09:18:41.798Z,98124.88
2023-02-21T09:22:09.048Z,98126.92
2023-02-21T09:25:33.143Z,98131.74
2023-02-21T09:28:57.217Z,98138.94
2023-02-21T09:32:21.624Z,98137.09
2023-02-21T09:35:45.600Z,98148.63
2023-02-21T09:39:10.234Z,98158.88
2023-02-21T09:42:36.628Z,98151.67
2023-02-21T09:46:26.370Z,98164.11
2023-02-21T09:49:57.260Z,98156.16
2023-02-21T09:53:29.156Z,98163.45
2023-02-21T09:56:53.408Z,98165.86
2023-02-21T10:00:23.375Z,98169.35
2023-02-21T10:04:05.848Z,98171.73
2023-02-21T10:07:32.597Z,98183.09
2023-02-21T10:11:09.066Z,98173.48
2023-02-21T10:15:18.006Z,98182.27
2023-02-21T10:19:05.641Z,98175.99
2023-02-21T10:22:38.854Z,98182.52
2023-02-21T10:26:09.584Z,98183.95
2023-02-21T10:29:58.422Z,98192.75
2023-02-21T10:33:22.756Z,98191.76
2023-02-21T10:36:46.771Z,98198.70
2023-02-21T10:40:32.505Z,98199.86
2023-02-21T10:44:02.887Z,98205.52
2023-02-21T10:47:35.388Z,98201.73
2023-02-21T10:50:59.165Z,98194.42
2023-02-21T10:54:26.567Z,98203.88
2023-02-21T10:57:58.995Z,98198.04
2023-02-21T11:01:30.469Z,98205.94
2023-02-21T11:04:56.247Z,98213.80
2023-02-21T11:08:39.739Z,98220.30
2023-02-21T11:12:19.414Z,98220.79
2023-02-21T11:15:45.442Z,98230.42
2023-02-21T11:19:15.498Z,98225.58
2023-02-21T11:22:42.994Z,98237.25
2023-02-21T11:26:12.751Z,98246.59
2023-02-21T11:29:37.788Z,98239.20
2023-02-21T11:33:04.902Z,98245.05
2023-02-21T11:36:32.460Z,98241.55
2023-02-21T11:39:57.279Z,98253.14
2023-02-21T11:43:30.190Z,98254.48
2023-02-21T11:46:59.482Z,98265.13
2023-02-21T11:50:28.488Z,98266.39
2023-02-21T11:53:52.581Z,98272.16
2023-02-21T11:57:43.877Z,98279.92
2023-02-21T12:01:15.169Z,98274.27
2023-02-21T12:04:59.693Z,98275.94
2023-02-21T12:08:43.412Z,98283.23
2023-02-21T12:12:44.898Z,98282.21
2023-02-21T12:16:18.505Z,98290.27
2023-02-21T12:19:45.274Z,98293.07
2023-02-21T12:23:38.078Z,98299.67
2023-02-21T12:27:15.533Z,98304.58
2023-02-21T12:31:00.954Z,98299.23
2023-02-21T12:34:53.997Z,98297.01
2023-02-21T12:38:43.238Z,98310.31
2023-02-21T12:42:19.196Z,98313.51
2023-02-21T12:46:06.341Z,98317.70
2023-02-21T12:49:39.577Z,98313.95
2023-02-21T12:53:07.823Z,98318.85
2023-02-21T12:56:35.180Z,98320.11
2023-02-21T13:00:17.701Z,98315.75
2023-02-21T13:03:41.645Z,98311.15
2023-02-21T13:07:19.323Z,98322.42
2023-02-21T13:10:51.635Z,98322.73
2023-02-21T13:14:21.667Z,98323.17
2023-02-21T13:17:53.633Z,98329.16
2023-02-21T13:21:55.371Z,98331.55
2023-02-21T13:25:35.512Z,98332.52
2023-02-21T13:29:00.421Z,98335.52
2023-02-21T13:32:25.648Z,98340.55
2023-02-21T13:35:51.661Z,98341.92
2023-02-21T13:39:37.605Z,98343.55
2023-02-21T13:43:15.877Z,98353.86
2023-02-21T13:46:40.887Z,98355.36
2023-02-21T13:50:39.817Z,98364.23
2023-02-21T13:54:13.727Z,98375.96
2023-02-21T13:57:40.123Z,98382.60
2023-02-21T14:01:38.571Z,98392.50
2023-02-21T14:05:06.370Z,98396.94
2023-02-21T14:08:31.724Z,98404.76
2023-02-21T14:11:56.770Z,98411.70
2023-02-21T14:15:22.045Z,98420.67
2023-02-21T14:19:12.621Z,98422.63
2023-02-21T14:22:36.962Z,98426.52
2023-02-21T14:26:05.955Z,98425.17
2023-02-21T14:29:45.833Z,98425.49
2023-02-21T14:33:39.287Z,98429.30
2023-02-21T14:37:55.343Z,98429.55
2023-02-21T14:42:37.304Z,98432.85
2023-02-21T14:46:56.218Z,98441.94
2023-02-21T14:51:14.534Z,98454.74
2023-02-21T14:55:34.212Z,98457.73
2023-02-21T14:59:57.265Z,98465.65
2023-02-21T15:04:16.365Z,98473.56
2023-02-21T15:08:33.277Z,98478.33
2023-02-21T15:12:32.197Z,98477.04
2023-02-21T15:16:24.330Z,98485.54
2023-02-21T15:20:30.161Z,98482.14
2023-02-21T15:24:30.132Z,98490.66
2023-02-21T15:28:40.185Z,98499.00
2023-02-21T15:32:38.120Z,98503.58
2023-02-21T15:36:38.202Z,98508.02
2023-02-21T15:40:39.168Z,98510.06
2023-02-21T15:45:00.157Z,98516.89
2023-02-21T15:48:58.215Z,98518.91
2023-02-21T15:53:02.146Z,98522.35
2023-02-21T15:57:00.142Z,98527.48
2023-02-21T16:01:17.417Z,98536.97
2023-02-21T16:05:16.145Z,98551.16
2023-02-21T16:09:20.108Z,98554.69
2023-02-21T16:13:18.079Z,98567.48
2023-02-21T16:17:31.140Z,98574.27
2023-02-21T16:21:38.067Z,98576.47
2023-02-21T16:25:40.077Z,98584.95
2023-02-21T16:29:40.063Z,98589.97
2023-02-21T16:33:40.200Z,98597.39
2023-02-21T16:37:39.033Z,98598.30
2023-02-21T16:41:37.074Z,98612.54
2023-02-21T16:45:36.073Z,98613.13
2023-02-21T16:49:34.057Z,98616.05
2023-02-21T16:53:33.058Z,98615.55
2023-02-21T16:57:31.155Z,98616.70
2023-02-21T17:01:32.067Z,98610.55
2023-02-21T17:05:30.037Z,98606.98
2023-02-21T17:09:35.987Z,98610.16
2023-02-21T17:13:34.026Z,98612.39
2023-02-21T17:17:31.995Z,98608.68
2023-02-21T17:21:30.084Z,98614.71
2023-02-21T17:25:27.973Z,98619.46
2023-02-21T17:29:27.053Z,98627.84
2023-02-21T17:33:25.027Z,98631.50
2023-02-21T17:37:23.114Z,98637.51
2023-02-21T17:41:21.951Z,98638.57
2023-02-21T17:45:21.016Z,98639.31
2023-02-21T17:49:19.010Z,98645.33
2023-02-21T17:53:19.021Z,98647.84
2023-02-21T17:57:16.945Z,98650.30
2023-02-21T18:01:15.215Z,98655.53
2023-02-21T18:05:12.960Z,98651.85
2023-02-21T18:09:14.006Z,98657.03
2023-02-21T18:13:11.927Z,98656.49
2023-02-21T18:17:12.056Z,98662.83
2023-02-21T18:21:09.910Z,98666.97
2023-02-21T18:25:08.076Z,98673.68
2023-02-21T18:29:05.908Z,98681.21
2023-02-21T18:33:03.937Z,98687.75
2023-02-21T18:37:06.990Z,98692.15
2023-02-21T18:41:08.994Z,98695.20
2023-02-21T18:45:06.896Z,98694.10
2023-02-21T18:49:07.239Z,98696.08
2023-02-21T18:53:08.993Z,98693.70
2023-02-21T18:57:06.878Z,98700.40
2023-02-21T19:01:04.946Z,98704.84
2023-02-21T19:05:03.027Z,98707.60
2023-02-21T19:09:02.951Z,98713.76
2023-02-21T19:13:00.864Z,98715.98
2023-02-21T19:16:58.868Z,98720.42
2023-02-21T19:20:56.867Z,98717.55
2023-02-21T19:24:54.849Z,98723.02
2023-02-21T19:28:52.938Z,98728.08
2023-02-21T19:32:51.814Z,98728.90
2023-02-21T19:36:54.026Z,98729.07
2023-02-21T19:40:52.834Z,98732.73
2023-02-21T19:44:50.893Z,98731.23
2023-02-21T19:48:49.860Z,98737.48
2023-02-21T19:52:47.888Z,98737.54
2023-02-21T19:56:46.828Z,98743.56
2023-02-21T20:00:46.837Z,98746.54
2023-02-21T20:04:46.116Z,98755.63
2023-02-21T20:08:43.899Z,98758.35
2023-02-21T20:12:41.779Z,98762.05
2023-02-21T20:16:40.913Z,98764.84
2023-02-21T20:20:38.764Z,98768.89
2023-02-21T20:24:36.834Z,98773.26
2023-02-21T20:28:34.742Z,98776.23
2023-02-21T20:32:32.997Z,98778.42
2023-02-21T20:36:30.818Z,98781.56
2023-02-21T20:40:28.744Z,98785.86
2023-02-21T20:44:27.821Z,98791.20
2023-02-21T20:48:25.774Z,98793.41
2023-02-21T20:52:23.923Z,98792.79
2023-02-21T20:56:21.764Z,98792.90
2023-02-21T21:00:19.708Z,98800.64
2023-02-21T21:04:18.830Z,98806.86
2023-02-21T21:08:16.749Z,98806.23
2023-02-21T21:12:26.753Z,98811.17
2023-02-21T21:16:24.760Z,98812.86
2023-02-21T21:20:24.765Z,98814.30
2023-02-21T21:24:22.792Z,98822.75
2023-02-21T21:28:21.722Z,98825.68
2023-02-21T21:32:19.712Z,98828.73
2023-02-21T21:36:17.758Z,98830.34
2023-02-21T21:40:16.055Z,98833.45
2023-02-21T21:44:14.672Z,98832.38
2023-02-21T21:48:13.733Z,98832.78
2023-02-21T21:52:13.873Z,98836.14
2023-02-21T21:56:13.648Z,98832.16
2023-02-21T22:00:20.681Z,98838.35
2023-02-21T22:04:20.614Z,98846.49
2023-02-21T22:08:22.680Z,98848.51
2023-02-21T22:12:22.609Z,98852.17
2023-02-21T22:16:20.652Z,98854.05
2023-02-21T22:20:24.600Z,98861.33
2023-02-21T22:24:27.798Z,98866.18
2023-02-21T22:28:26.613Z,98901.41
2023-02-21T22:32:24.710Z,98909.91
2023-02-21T22:36:25.593Z,98902.58
2023-02-21T22:40:30.604Z,98916.59
2023-02-21T22:44:31.535Z,98918.36
2023-02-21T22:48:29.696Z,98912.22
2023-02-21T22:52:27.676Z,98922.80
2023-02-21T22:56:30.640Z,98931.80
2023-02-21T23:00:32.551Z,98927.70
2023-02-21T23:04:32.557Z,98940.45
2023-02-21T23:08:33.499Z,98951.23
2023-02-21T23:12:31.561Z,98951.35
2023-02-21T23:16:36.498Z,98958.39
2023-02-21T23:20:37.594Z,98962.30
2023-02-21T23:24:36.517Z,98967.45
2023-02-21T23:28:35.630Z,98972.92
2023-02-21T23:32:33.559Z,98975.11
2023-02-21T23:36:31.519Z,98981.77
2023-02-21T23:40:31.479Z,98981.35
2023-02-21T23:44:29.531Z,98986.94
2023-02-21T23:48:29.591Z,98992.02
2023-02-21T23:52:29.538Z,99000.77
2023-02-21T23:56:29.494Z,99000.73
